createdAt,value
2022-10-03T00:00:09.247Z,0.30
2022-10-03T00:03:24.320Z,0.20
2022-10-03T00:06:28.013Z,0.40
2022-10-03T00:08:59.289Z,0.30
2022-10-03T00:12:13.722Z,0.30
2022-10-03T00:15:13.520Z,0.32
2022-10-03T00:17:55.123Z,0.50
2022-10-03T00:20:45.348Z,0.77
2022-10-03T00:23:28.694Z,0.50
2022-10-03T00:26:28.573Z,0.50
2022-10-03T00:29:31.125Z,0.40
2022-10-03T00:32:38.212Z,0.47
2022-10-03T00:35:35.593Z,0.57
2022-10-03T00:38:27.098Z,0.40
2022-10-03T00:41:15.482Z,0.45
2022-10-03T00:44:04.246Z,0.40
2022-10-03T00:47:05.821Z,0.73
2022-10-03T00:49:54.300Z,0.30
2022-10-03T00:52:33.276Z,0.47
2022-10-03T00:55:18.531Z,0.20
2022-10-03T00:58:10.678Z,0.32
2022-10-03T01:00:41.433Z,0.65
2022-10-03T01:03:34.661Z,0.40
2022-10-03T01:06:18.084Z,0.40
2022-10-03T01:09:33.859Z,0.38
2022-10-03T01:12:37.613Z,0.30
2022-10-03T01:15:25.803Z,0.50
2022-10-03T01:18:20.838Z,0.32
2022-10-03T01:21:12.256Z,0.32
2022-10-03T01:24:26.511Z,0.60
2022-10-03T01:27:07.998Z,0.55
2022-10-03T01:30:21.295Z,0.50
2022-10-03T01:33:00.026Z,0.50
2022-10-03T01:35:56.578Z,0.30
2022-10-03T01:38:29.473Z,0.40
2022-10-03T01:41:45.862Z,0.40
2022-10-03T01:44:25.311Z,0.30
2022-10-03T01:47:01.890Z,0.30
2022-10-03T01:49:44.699Z,0.50
2022-10-03T01:52:51.701Z,0.38
2022-10-03T01:55:41.449Z,0.40
2022-10-03T01:58:33.498Z,0.60
2022-10-03T02:04:08.616Z,0.55
2022-10-03T02:07:01.170Z,0.47
2022-10-03T02:09:41.534Z,0.43
2022-10-03T02:12:23.150Z,0.40
2022-10-03T02:15:00.928Z,0.32
2022-10-03T02:18:06.564Z,0.32
2022-10-03T02:20:51.956Z,0.30
2022-10-03T02:23:54.662Z,0.30
2022-10-03T02:26:43.214Z,0.60
2022-10-03T02:29:38.934Z,0.30
2022-10-03T02:32:27.486Z,0.40
2022-10-03T02:35:43.088Z,0.30
2022-10-03T02:38:41.273Z,0.45
2022-10-03T02:41:32.885Z,0.60
2022-10-03T02:44:07.338Z,0.35
2022-10-03T02:46:55.637Z,0.90
2022-10-03T02:50:03.182Z,0.40
2022-10-03T02:52:44.350Z,0.50
2022-10-03T02:55:44.728Z,0.40
2022-10-03T02:58:59.205Z,0.70
2022-10-03T03:01:56.824Z,0.60
2022-10-03T03:05:09.778Z,0.55
2022-10-03T03:07:52.161Z,0.75
2022-10-03T03:10:40.326Z,0.65
2022-10-03T03:13:46.718Z,0.88
2022-10-03T03:16:42.534Z,0.80
2022-10-03T03:19:47.634Z,0.80
2022-10-03T03:22:58.718Z,0.80
2022-10-03T03:25:42.173Z,0.82
2022-10-03T03:28:31.815Z,0.98
2022-10-03T03:31:23.821Z,0.70
2022-10-03T03:34:07.689Z,0.82
2022-10-03T03:36:45.729Z,0.63
2022-10-03T03:39:30.477Z,0.63
2022-10-03T03:42:15.082Z,0.73
2022-10-03T03:45:25.261Z,0.50
2022-10-03T03:48:13.040Z,0.40
2022-10-03T03:50:55.354Z,0.73
2022-10-03T03:53:54.865Z,0.57
2022-10-03T03:57:00.213Z,0.57
2022-10-03T03:59:50.399Z,0.60
2022-10-03T04:02:30.787Z,0.60
2022-10-03T04:05:04.096Z,0.50
2022-10-03T04:07:54.080Z,0.50
2022-10-03T04:10:41.669Z,0.50
2022-10-03T04:13:44.796Z,0.70
2022-10-03T04:17:02.189Z,0.50
2022-10-03T04:19:43.356Z,0.60
2022-10-03T04:22:29.386Z,0.50
2022-10-03T04:25:29.817Z,0.32
2022-10-03T04:28:32.099Z,0.40
2022-10-03T04:34:05.786Z,0.63
2022-10-03T04:36:44.501Z,0.30
2022-10-03T04:39:32.942Z,0.80
2022-10-03T04:42:41.823Z,0.45
2022-10-03T04:45:39.456Z,0.50
2022-10-03T04:48:39.669Z,0.40
2022-10-03T04:51:42.185Z,0.52
2022-10-03T04:54:28.946Z,1.23
2022-10-03T04:57:25.462Z,0.50
2022-10-03T05:00:28.891Z,0.60
2022-10-03T05:03:04.857Z,0.30
2022-10-03T05:05:59.142Z,0.55
2022-10-03T05:08:47.948Z,0.70
2022-10-03T05:11:44.857Z,0.55
2022-10-03T05:14:45.809Z,0.60
2022-10-03T05:17:48.542Z,0.40
2022-10-03T05:23:47.293Z,0.73
2022-10-03T05:26:44.546Z,0.73
2022-10-03T05:29:29.847Z,0.60
2022-10-03T05:32:06.293Z,0.60
2022-10-03T05:38:10.059Z,0.50
2022-10-03T05:40:45.966Z,0.88
2022-10-03T05:43:44.244Z,0.80
2022-10-03T05:46:37.819Z,1.08
2022-10-03T05:49:50.327Z,0.82
2022-10-03T05:52:29.953Z,1.00
2022-10-03T05:55:10.210Z,0.80
2022-10-03T05:58:17.656Z,1.00
2022-10-03T06:01:23.922Z,0.90
2022-10-03T06:04:35.886Z,0.70
2022-10-03T06:07:25.976Z,1.00
2022-10-03T06:10:25.930Z,1.35
2022-10-03T06:13:36.129Z,1.23
2022-10-03T06:16:26.009Z,1.05
2022-10-03T06:19:17.309Z,0.90
2022-10-03T06:22:13.891Z,1.00
2022-10-03T06:24:57.940Z,0.77
2022-10-03T06:27:45.832Z,0.80
2022-10-03T06:30:26.795Z,0.80
2022-10-03T06:33:21.620Z,1.00
2022-10-03T06:36:03.916Z,1.30
2022-10-03T06:38:51.236Z,1.55
2022-10-03T06:41:35.300Z,1.48
2022-10-03T06:44:13.717Z,1.60
2022-10-03T06:46:49.486Z,1.27
2022-10-03T06:49:31.995Z,1.48
2022-10-03T06:52:26.603Z,1.40
2022-10-03T06:55:13.909Z,1.33
2022-10-03T06:58:07.984Z,1.80
2022-10-03T07:00:53.742Z,0.90
2022-10-03T07:03:52.968Z,0.80
2022-10-03T07:07:09.046Z,0.50
2022-10-03T07:09:45.239Z,0.50
2022-10-03T07:12:37.170Z,0.77
2022-10-03T07:15:57.822Z,1.08
2022-10-03T07:18:41.817Z,1.02
2022-10-03T07:21:32.562Z,0.60
2022-10-03T07:24:13.287Z,0.43
2022-10-03T07:27:20.825Z,0.70
2022-10-03T07:33:10.989Z,0.88
2022-10-03T07:36:07.124Z,0.47
2022-10-03T07:39:07.248Z,0.65
2022-10-03T07:42:20.540Z,0.35
2022-10-03T07:45:25.005Z,1.05
2022-10-03T07:48:06.924Z,1.10
2022-10-03T07:50:59.370Z,2.03
2022-10-03T07:53:53.523Z,1.60
2022-10-03T07:56:48.252Z,1.33
2022-10-03T07:59:41.890Z,1.40
2022-10-03T08:02:50.916Z,1.40
2022-10-03T08:05:56.555Z,3.03
2022-10-03T08:08:44.800Z,2.58
2022-10-03T08:11:29.973Z,2.45
2022-10-03T08:14:07.891Z,2.20
2022-10-03T08:17:12.315Z,2.17
2022-10-03T08:19:48.580Z,2.78
2022-10-03T08:22:51.250Z,2.15
2022-10-03T08:26:02.921Z,1.75
2022-10-03T08:28:48.611Z,1.60
2022-10-03T08:31:18.819Z,1.20
2022-10-03T08:34:14.893Z,1.30
2022-10-03T08:36:56.478Z,1.65
2022-10-03T08:39:38.577Z,1.42
2022-10-03T08:42:45.045Z,1.40
2022-10-03T08:45:57.808Z,1.85
2022-10-03T08:48:59.593Z,1.60
2022-10-03T08:51:59.059Z,1.15
2022-10-03T08:54:54.700Z,1.23
2022-10-03T08:57:42.527Z,0.90
2022-10-03T09:00:25.203Z,0.90
2022-10-03T09:03:36.877Z,1.08
2022-10-03T09:06:58.571Z,0.80
2022-10-03T09:09:53.506Z,0.85
2022-10-03T09:12:29.110Z,0.63
2022-10-03T09:15:17.902Z,0.70
2022-10-03T09:18:29.184Z,0.60
2022-10-03T09:23:39.997Z,0.32
2022-10-03T09:26:29.370Z,0.40
2022-10-03T09:29:09.012Z,0.50
2022-10-03T09:32:05.115Z,0.63
2022-10-03T09:34:48.926Z,0.40
2022-10-03T09:37:39.065Z,0.50
2022-10-03T09:40:31.300Z,0.50
2022-10-03T09:43:31.502Z,0.40
2022-10-03T09:46:21.571Z,0.20
2022-10-03T09:49:13.765Z,0.40
2022-10-03T09:52:12.852Z,0.40
2022-10-03T09:55:02.153Z,0.50
2022-10-03T09:58:00.348Z,0.20
2022-10-03T10:03:59.262Z,0.38
2022-10-03T10:06:47.568Z,0.30
2022-10-03T10:09:59.220Z,0.22
2022-10-03T10:13:05.834Z,0.40
2022-10-03T10:16:23.287Z,0.22
2022-10-03T10:19:12.684Z,0.30
2022-10-03T10:22:08.865Z,0.50
2022-10-03T10:24:52.913Z,0.35
2022-10-03T10:27:49.515Z,0.40
2022-10-03T10:30:25.056Z,0.50
2022-10-03T10:33:12.529Z,0.30
2022-10-03T10:36:34.866Z,0.35
2022-10-03T10:39:44.925Z,0.30
2022-10-03T10:42:49.450Z,0.43
2022-10-03T10:45:39.540Z,0.30
2022-10-03T10:48:36.897Z,0.40
2022-10-03T10:51:47.639Z,0.40
2022-10-03T10:54:32.412Z,0.30
2022-10-03T10:57:15.756Z,0.38
2022-10-03T11:00:20.245Z,0.47
2022-10-03T11:03:35.061Z,0.40
2022-10-03T11:06:43.331Z,0.30
2022-10-03T11:09:55.220Z,0.40
2022-10-03T11:12:42.342Z,0.10
2022-10-03T11:15:31.404Z,0.32
2022-10-03T11:18:28.553Z,0.40
2022-10-03T11:21:24.627Z,0.22
2022-10-03T11:24:32.132Z,0.40
2022-10-03T11:27:46.381Z,0.20
2022-10-03T11:30:32.254Z,0.30
2022-10-03T11:33:46.718Z,0.30
2022-10-03T11:36:45.415Z,0.35
2022-10-03T11:39:44.003Z,0.40
2022-10-03T11:42:46.102Z,0.40
2022-10-03T11:48:23.688Z,0.28
2022-10-03T11:51:01.171Z,0.43
2022-10-03T11:54:29.459Z,0.50
2022-10-03T11:57:07.003Z,0.30
2022-10-03T12:02:45.901Z,0.40
2022-10-03T12:05:42.642Z,0.30
2022-10-03T12:08:54.185Z,0.40
2022-10-03T12:11:29.713Z,0.40
2022-10-03T12:14:23.144Z,0.28
2022-10-03T12:17:12.724Z,0.60
2022-10-03T12:20:18.658Z,0.60
2022-10-03T12:22:59.754Z,0.35
2022-10-03T12:25:42.213Z,0.40
2022-10-03T12:28:30.558Z,0.40
2022-10-03T12:31:28.746Z,0.30
2022-10-03T12:34:08.826Z,0.40
2022-10-03T12:37:12.019Z,0.30
2022-10-03T12:39:46.989Z,0.25
2022-10-03T12:42:37.713Z,0.40
2022-10-03T12:45:42.102Z,0.40
2022-10-03T12:48:34.971Z,0.22
2022-10-03T12:51:06.500Z,0.40
2022-10-03T12:54:02.759Z,0.40
2022-10-03T12:57:16.950Z,0.32
2022-10-03T13:00:25.920Z,0.30
2022-10-03T13:03:12.391Z,0.20
2022-10-03T13:06:17.138Z,0.38
2022-10-03T13:09:13.483Z,0.30
2022-10-03T13:12:10.434Z,0.45
2022-10-03T13:15:27.019Z,0.40
2022-10-03T13:18:26.348Z,0.52
2022-10-03T13:21:13.115Z,0.40
2022-10-03T13:24:11.631Z,0.88
2022-10-03T13:26:52.339Z,0.57
2022-10-03T13:29:54.362Z,0.50
2022-10-03T13:32:39.651Z,0.40
2022-10-03T13:35:50.631Z,0.47
2022-10-03T13:38:32.115Z,0.50
2022-10-03T13:41:26.396Z,0.40
2022-10-03T13:44:12.819Z,0.30
2022-10-03T13:47:04.881Z,0.43
2022-10-03T13:49:52.238Z,0.70
2022-10-03T13:52:37.893Z,0.40
2022-10-03T13:55:21.792Z,0.43
2022-10-03T13:58:25.184Z,0.50
2022-10-03T14:01:04.273Z,0.35
2022-10-03T14:03:46.517Z,0.50
2022-10-03T14:06:43.975Z,0.40
2022-10-03T14:09:30.702Z,0.30
2022-10-03T14:12:33.175Z,0.60
2022-10-03T14:15:21.041Z,0.40
2022-10-03T14:18:07.812Z,0.43
2022-10-03T14:20:53.532Z,0.47
2022-10-03T14:23:33.998Z,0.25
2022-10-03T14:26:30.148Z,0.50
2022-10-03T14:29:28.931Z,0.50
2022-10-03T14:32:22.583Z,0.60
2022-10-03T14:35:26.428Z,0.40
2022-10-03T14:38:16.182Z,0.40
2022-10-03T14:41:02.831Z,0.60
2022-10-03T14:43:45.984Z,0.55
2022-10-03T14:46:15.946Z,0.60
2022-10-03T14:48:51.594Z,0.50
2022-10-03T14:51:43.073Z,0.43
2022-10-03T14:54:21.431Z,0.60
2022-10-03T14:56:51.588Z,0.45
2022-10-03T14:59:23.863Z,0.45
2022-10-03T15:01:54.133Z,0.60
2022-10-03T15:04:29.156Z,0.63
2022-10-03T15:07:00.297Z,0.50
2022-10-03T15:09:33.711Z,0.70
2022-10-03T15:12:24.637Z,0.38
2022-10-03T15:15:01.216Z,0.40
2022-10-03T15:17:32.052Z,0.63
2022-10-03T15:20:01.370Z,0.53
2022-10-03T15:22:41.389Z,0.85
2022-10-03T15:25:14.291Z,0.57
2022-10-03T15:27:43.520Z,0.50
2022-10-03T15:30:22.179Z,0.43
2022-10-03T15:32:50.698Z,0.70
2022-10-03T15:35:22.567Z,0.50
2022-10-03T15:37:49.956Z,0.60
2022-10-03T15:40:25.430Z,0.52
2022-10-03T15:43:03.622Z,0.80
2022-10-03T15:45:33.558Z,0.50
2022-10-03T15:48:05.271Z,0.47
2022-10-03T15:53:36.552Z,0.70
2022-10-03T15:56:24.088Z,0.80
2022-10-03T15:58:57.175Z,1.10
2022-10-03T16:01:41.097Z,0.90
2022-10-03T16:04:21.991Z,1.40
2022-10-03T16:07:11.816Z,0.95
2022-10-03T16:09:53.135Z,0.65
2022-10-03T16:12:20.013Z,0.80
2022-10-03T16:15:16.976Z,0.80
2022-10-03T16:17:51.827Z,0.82
2022-10-03T16:20:37.273Z,0.80
2022-10-03T16:23:26.897Z,0.85
2022-10-03T16:26:04.966Z,0.90
2022-10-03T16:28:39.537Z,0.80
2022-10-03T16:31:29.993Z,0.60
2022-10-03T16:34:04.439Z,0.80
2022-10-03T16:36:41.068Z,1.35
2022-10-03T16:39:26.803Z,1.52
2022-10-03T16:41:55.489Z,1.40
2022-10-03T16:44:34.060Z,1.60
2022-10-03T16:47:03.600Z,1.50
2022-10-03T16:50:08.347Z,1.17
2022-10-03T16:52:40.503Z,1.13
2022-10-03T16:55:13.265Z,1.70
2022-10-03T16:57:51.949Z,1.83
2022-10-03T17:00:26.645Z,1.75
2022-10-03T17:02:55.548Z,2.42
2022-10-03T17:05:23.178Z,1.60
2022-10-03T17:08:06.625Z,1.48
2022-10-03T17:10:41.250Z,1.83
2022-10-03T17:13:16.405Z,2.70
2022-10-03T17:16:14.028Z,1.88
2022-10-03T17:18:44.680Z,1.67
2022-10-03T17:21:22.521Z,2.00
2022-10-03T17:24:09.673Z,1.98
2022-10-03T17:26:45.550Z,2.08
2022-10-03T17:29:37.825Z,2.22
2022-10-03T17:32:44.978Z,2.30
2022-10-03T17:35:41.190Z,2.60
2022-10-03T17:38:48.881Z,2.22
2022-10-03T17:41:18.719Z,3.05
2022-10-03T17:43:50.067Z,2.30
2022-10-03T17:46:26.203Z,2.33
2022-10-03T17:49:17.856Z,2.33
2022-10-03T17:51:48.220Z,2.20
2022-10-03T17:54:20.170Z,2.65
2022-10-03T17:57:07.326Z,1.73
2022-10-03T17:59:46.839Z,2.05
2022-10-03T18:02:24.279Z,1.98
2022-10-03T18:05:01.684Z,1.80
2022-10-03T18:07:30.654Z,1.48
2022-10-03T18:09:58.219Z,1.67
2022-10-03T18:12:40.468Z,1.60
2022-10-03T18:15:22.811Z,2.15
2022-10-03T18:17:49.847Z,2.03
2022-10-03T18:20:34.895Z,2.10
2022-10-03T18:23:08.537Z,2.28
2022-10-03T18:26:19.632Z,2.20
2022-10-03T18:29:22.552Z,2.22
2022-10-03T18:31:59.129Z,2.22
2022-10-03T18:34:48.203Z,2.20
2022-10-03T18:37:29.140Z,2.10
2022-10-03T18:39:59.185Z,2.20
2022-10-03T18:42:29.978Z,1.63
2022-10-03T18:44:59.726Z,2.03
2022-10-03T18:47:31.127Z,2.10
2022-10-03T18:50:21.767Z,1.77
2022-10-03T18:52:54.061Z,2.10
2022-10-03T18:55:29.397Z,2.05
2022-10-03T18:58:18.992Z,1.77
2022-10-03T19:01:02.085Z,2.33
2022-10-03T19:03:44.336Z,2.35
2022-10-03T19:06:25.447Z,2.28
2022-10-03T19:09:00.362Z,2.00
2022-10-03T19:11:58.499Z,1.67
2022-10-03T19:14:58.292Z,1.77
2022-10-03T19:17:50.279Z,1.80
2022-10-03T19:20:33.633Z,1.60
2022-10-03T19:23:27.312Z,1.23
2022-10-03T19:25:59.383Z,1.17
2022-10-03T19:28:35.557Z,1.70
2022-10-03T19:31:12.055Z,1.27
2022-10-03T19:33:45.384Z,1.33
2022-10-03T19:36:21.918Z,1.45
2022-10-03T19:38:50.135Z,1.38
2022-10-03T19:41:27.653Z,1.30
2022-10-03T19:43:55.595Z,1.30
2022-10-03T19:46:34.585Z,1.48
2022-10-03T19:49:19.848Z,1.40
2022-10-03T19:51:49.050Z,1.42
2022-10-03T19:54:43.079Z,1.55
2022-10-03T19:57:19.764Z,1.00
2022-10-03T19:59:54.994Z,1.40
2022-10-03T20:02:27.268Z,1.15
2022-10-03T20:04:57.325Z,1.00
2022-10-03T20:07:46.865Z,1.00
2022-10-03T20:10:36.375Z,1.33
2022-10-03T20:13:04.263Z,1.58
2022-10-03T20:15:50.464Z,1.67
2022-10-03T20:18:25.043Z,1.50
2022-10-03T20:20:55.037Z,1.23
2022-10-03T20:23:25.764Z,1.40
2022-10-03T20:26:01.584Z,1.40
2022-10-03T20:28:39.383Z,1.27
2022-10-03T20:31:06.977Z,1.33
2022-10-03T20:33:37.311Z,1.17
2022-10-03T20:36:25.560Z,1.48
2022-10-03T20:39:01.316Z,1.48
2022-10-03T20:41:42.305Z,1.30
2022-10-03T20:44:35.543Z,1.48
2022-10-03T20:47:07.029Z,1.08
2022-10-03T20:49:40.260Z,1.10
2022-10-03T20:52:08.802Z,1.35
2022-10-03T20:54:46.769Z,1.30
2022-10-03T20:57:20.020Z,1.10
2022-10-03T20:59:55.912Z,1.77
2022-10-03T21:02:52.321Z,1.35
2022-10-03T21:05:39.050Z,1.35
2022-10-03T21:08:17.538Z,1.20
2022-10-03T21:10:54.860Z,1.10
2022-10-03T21:13:40.824Z,1.20
2022-10-03T21:16:21.444Z,1.10
2022-10-03T21:18:51.249Z,1.40
2022-10-03T21:21:31.333Z,1.35
2022-10-03T21:24:21.225Z,1.23
2022-10-03T21:26:56.865Z,1.40
2022-10-03T21:29:23.789Z,1.25
2022-10-03T21:31:50.799Z,1.35
2022-10-03T21:34:43.895Z,1.40
2022-10-03T21:37:26.065Z,1.50
2022-10-03T21:40:40.843Z,1.10
2022-10-03T21:43:45.413Z,1.50
2022-10-03T21:46:38.327Z,1.15
2022-10-03T21:49:22.702Z,1.15
2022-10-03T21:51:49.576Z,1.40
2022-10-03T21:54:27.171Z,1.25
2022-10-03T21:56:56.979Z,1.50
2022-10-03T21:59:56.318Z,1.25
2022-10-03T22:02:32.166Z,1.40
2022-10-03T22:05:06.010Z,1.38
2022-10-03T22:07:42.049Z,1.65
2022-10-03T22:10:21.511Z,1.40
2022-10-03T22:12:55.801Z,1.23
2022-10-03T22:15:22.802Z,1.50
2022-10-03T22:18:11.481Z,1.20
2022-10-03T22:21:02.500Z,1.50
2022-10-03T22:23:38.602Z,1.50
2022-10-03T22:26:37.203Z,1.50
2022-10-03T22:29:13.008Z,1.02
2022-10-03T22:31:51.235Z,1.85
2022-10-03T22:34:20.915Z,1.70
2022-10-03T22:36:48.814Z,1.48
2022-10-03T22:39:18.441Z,1.33
2022-10-03T22:41:50.581Z,1.20
2022-10-03T22:44:22.925Z,1.30
2022-10-03T22:46:53.134Z,1.58
2022-10-03T22:49:48.119Z,1.45
2022-10-03T22:52:24.345Z,1.20
2022-10-03T22:54:52.498Z,1.40
2022-10-03T22:57:19.886Z,1.35
2022-10-03T23:00:00.935Z,1.20
2022-10-03T23:02:33.538Z,1.50
2022-10-03T23:05:07.102Z,1.48
2022-10-03T23:07:46.175Z,1.50
2022-10-03T23:10:24.323Z,1.10
2022-10-03T23:13:35.955Z,1.30
2022-10-03T23:16:40.553Z,2.08
2022-10-03T23:19:19.299Z,2.03
2022-10-03T23:21:48.284Z,2.25
2022-10-03T23:24:44.184Z,2.05
2022-10-03T23:27:49.048Z,1.40
2022-10-03T23:30:15.893Z,1.63
2022-10-03T23:32:49.099Z,1.38
2022-10-03T23:35:20.223Z,1.73
2022-10-03T23:37:49.243Z,1.50
2022-10-03T23:40:50.635Z,1.45
2022-10-03T23:43:23.696Z,1.30
2022-10-03T23:45:53.405Z,1.83
2022-10-03T23:48:23.838Z,1.90
2022-10-03T23:50:57.668Z,1.23
2022-10-03T23:53:31.575Z,1.80
2022-10-03T23:56:03.992Z,2.10
2022-10-03T23:58:34.171Z,1.67
